Time;durP1;ratioP1;P1;durP2;ratioP2;P2;SDS_P1;SDS_P2;PMS_P1;PMS_P2;Temp;Humidity;BMP_temperature;BMP_pressure;BME280_temperature;BME280_humidity;BME280_pressure;Samples;Min_cycle;Max_cycle;Signal;HPM_P1;HPM_P2
2021/07/31 00:01:08;;;;;;;19.48;5.85;;;16.30;99.90;;;;;;5070747;28;25090;-65
2021/07/31 00:03:36;;;;;;;22.35;8.27;;;16.30;99.90;;;;;;5071577;28;25087;-67
2021/07/31 00:06:02;;;;;;;24.88;8.95;;;16.30;99.90;;;;;;5075340;28;25079;-69
2021/07/31 00:08:28;;;;;;;28.83;8.88;;;16.20;99.90;;;;;;5072577;28;25079;-67
2021/07/31 00:10:54;;;;;;;24.45;8.88;;;16.20;99.90;;;;;;5066324;28;25059;-67
2021/07/31 00:13:20;;;;;;;21.48;9.35;;;16.10;99.90;;;;;;5057371;28;25086;-66
2021/07/31 00:15:46;;;;;;;27.23;8.73;;;16.20;99.90;;;;;;5052605;28;25072;-67
2021/07/31 00:18:12;;;;;;;29.55;10.05;;;16.10;99.90;;;;;;5060303;28;25138;-65
2021/07/31 00:20:38;;;;;;;40.17;15.00;;;16.00;99.90;;;;;;5066912;28;25076;-68
2021/07/31 00:23:04;;;;;;;32.08;15.35;;;15.90;99.90;;;;;;5069110;28;25102;-66
2021/07/31 00:25:30;;;;;;;45.55;21.48;;;15.90;99.90;;;;;;5067084;28;25108;-66
2021/07/31 00:27:56;;;;;;;32.65;22.75;;;15.80;99.90;;;;;;5066355;28;25070;-66
2021/07/31 00:30:24;;;;;;;45.88;26.13;;;15.80;99.90;;;;;;5068316;28;25056;-65
2021/07/31 00:32:50;;;;;;;55.40;28.38;;;15.80;99.90;;;;;;5067290;28;25135;-69
2021/07/31 00:35:16;;;;;;;47.28;27.73;;;15.80;99.90;;;;;;5067356;28;25058;-63
2021/07/31 00:37:42;;;;;;;46.45;18.25;;;15.70;99.90;;;;;;5066907;28;25057;-62
2021/07/31 00:40:08;;;;;;;44.13;19.55;;;15.70;99.90;;;;;;5068172;28;25063;-62
2021/07/31 00:42:36;;;;;;;38.97;19.98;;;15.70;99.90;;;;;;5084158;28;25063;-63
2021/07/31 00:45:02;;;;;;;43.15;21.00;;;15.70;99.90;;;;;;5070022;28;25054;-62
2021/07/31 00:47:27;;;;;;;49.90;20.15;;;15.70;99.90;;;;;;5067597;28;25051;-63
2021/07/31 00:49:53;;;;;;;33.47;17.52;;;15.70;99.90;;;;;;5061769;28;25074;-59
2021/07/31 00:52:19;;;;;;;32.83;16.23;;;15.60;99.90;;;;;;5069214;28;25090;-62
2021/07/31 00:54:45;;;;;;;40.75;15.30;;;15.50;99.90;;;;;;5082856;28;25172;-62
2021/07/31 00:57:12;;;;;;;28.90;15.13;;;15.40;99.90;;;;;;5066029;28;25054;-63
2021/07/31 00:59:38;;;;;;;33.30;15.38;;;15.40;99.90;;;;;;5050501;28;25063;-63
2021/07/31 01:02:03;;;;;;;30.73;16.27;;;15.30;99.90;;;;;;5085809;28;25074;-61
2021/07/31 01:04:29;;;;;;;35.15;17.23;;;15.40;99.90;;;;;;5083180;28;25079;-61
2021/07/31 01:06:54;;;;;;;39.33;16.10;;;15.40;99.90;;;;;;5066479;28;25152;-63
2021/07/31 01:09:20;;;;;;;31.88;17.00;;;15.40;99.90;;;;;;5071129;28;25094;-61
2021/07/31 01:11:45;;;;;;;40.20;19.02;;;15.40;99.90;;;;;;5070392;28;25094;-62
2021/07/31 01:14:11;;;;;;;42.13;16.13;;;15.40;99.90;;;;;;5060126;28;25109;-63
2021/07/31 01:16:37;;;;;;;34.08;15.45;;;15.30;99.90;;;;;;5046826;28;25074;-60
2021/07/31 01:19:03;;;;;;;45.83;16.45;;;15.30;99.90;;;;;;5064359;28;25055;-62
2021/07/31 01:21:36;;;;;;;26.55;16.38;;;15.40;99.90;;;;;;5066674;28;25049;-61
2021/07/31 01:24:02;;;;;;;36.35;17.10;;;15.40;99.90;;;;;;5066988;28;25056;-63
2021/07/31 01:26:27;;;;;;;42.33;17.67;;;15.40;99.90;;;;;;5077038;28;25074;-67
2021/07/31 01:28:53;;;;;;;43.20;17.25;;;15.30;99.90;;;;;;5069478;28;25137;-65
2021/07/31 01:31:18;;;;;;;32.65;18.65;;;15.40;99.90;;;;;;5066686;28;25068;-63
2021/07/31 01:33:44;;;;;;;31.95;19.10;;;15.30;99.90;;;;;;5065853;28;25108;-61
2021/07/31 01:36:10;;;;;;;28.35;18.48;;;15.30;99.90;;;;;;5066853;28;25084;-63
2021/07/31 01:38:36;;;;;;;34.78;19.02;;;15.20;99.90;;;;;;5069143;28;25067;-63
2021/07/31 01:41:02;;;;;;;33.05;18.92;;;15.30;99.90;;;;;;5066086;28;25090;-62
2021/07/31 01:43:28;;;;;;;34.28;20.33;;;15.20;99.90;;;;;;5066026;28;25155;-66
2021/07/31 01:45:54;;;;;;;37.92;21.98;;;15.20;99.90;;;;;;5053500;28;25057;-64
2021/07/31 01:48:20;;;;;;;31.92;20.50;;;15.20;99.90;;;;;;5060790;28;25049;-63
2021/07/31 01:50:45;;;;;;;29.02;21.35;;;15.20;99.90;;;;;;5060479;28;25130;-65
2021/07/31 01:53:11;;;;;;;45.13;22.00;;;15.20;99.90;;;;;;5064229;28;25076;-64
2021/07/31 01:55:36;;;;;;;50.13;25.95;;;15.20;99.90;;;;;;5067181;28;25151;-69
2021/07/31 01:58:02;;;;;;;41.08;22.98;;;15.20;99.90;;;;;;5063297;28;25078;-65
2021/07/31 02:00:28;;;;;;;33.25;23.70;;;15.30;99.90;;;;;;5076172;28;25062;-64
2021/07/31 02:02:53;;;;;;;41.25;24.08;;;15.30;99.90;;;;;;5084784;28;25108;-64
2021/07/31 02:05:19;;;;;;;37.72;21.88;;;15.30;99.90;;;;;;5069644;28;25138;-63
2021/07/31 02:07:44;;;;;;;32.35;20.25;;;15.30;99.90;;;;;;5070998;28;25136;-63
2021/07/31 02:10:10;;;;;;;30.95;19.27;;;15.30;99.90;;;;;;5053689;28;25075;-62
2021/07/31 02:12:36;;;;;;;35.88;19.92;;;15.30;99.90;;;;;;5061040;28;25099;-66
2021/07/31 02:15:01;;;;;;;30.58;18.00;;;15.30;99.90;;;;;;5068602;28;25160;-64
2021/07/31 02:17:27;;;;;;;24.40;18.75;;;15.30;99.90;;;;;;5069751;28;25052;-63
2021/07/31 02:19:52;;;;;;;20.50;18.00;;;15.30;99.90;;;;;;5070064;28;25114;-63
2021/07/31 02:22:18;;;;;;;22.95;17.25;;;15.30;99.90;;;;;;5058600;28;25062;-61
2021/07/31 02:24:44;;;;;;;20.17;15.13;;;15.30;99.90;;;;;;5063565;28;25136;-61
2021/07/31 02:27:09;;;;;;;19.48;14.70;;;15.30;99.90;;;;;;5065013;28;25092;-62
2021/07/31 02:29:35;;;;;;;17.60;12.52;;;15.20;99.90;;;;;;5066938;28;25124;-62
2021/07/31 02:32:00;;;;;;;20.85;14.38;;;15.20;99.90;;;;;;5065631;28;25061;-65
2021/07/31 02:34:26;;;;;;;17.08;12.85;;;15.10;99.90;;;;;;5066053;28;25066;-63
2021/07/31 02:36:51;;;;;;;20.23;13.85;;;15.10;99.90;;;;;;5069145;28;25037;-63
2021/07/31 02:39:17;;;;;;;21.67;15.43;;;15.00;99.90;;;;;;5070577;28;25061;-63
2021/07/31 02:41:42;;;;;;;28.02;14.82;;;15.00;99.90;;;;;;5066141;28;25145;-61
2021/07/31 02:44:08;;;;;;;26.33;16.33;;;15.00;99.90;;;;;;5068419;28;25096;-63
2021/07/31 02:46:35;;;;;;;19.98;15.73;;;15.00;99.90;;;;;;5061415;28;25086;-63
2021/07/31 02:49:01;;;;;;;20.65;16.38;;;14.90;99.90;;;;;;5054181;28;25097;-63
2021/07/31 02:51:26;;;;;;;18.55;16.25;;;14.90;99.90;;;;;;5069868;28;25105;-63
2021/07/31 02:53:52;;;;;;;17.13;15.40;;;14.90;99.90;;;;;;5068867;28;25154;-61
2021/07/31 02:56:17;;;;;;;23.60;16.27;;;14.90;99.90;;;;;;5054059;28;25134;-64
2021/07/31 02:58:43;;;;;;;22.20;17.77;;;15.00;99.90;;;;;;5062581;28;25055;-62
2021/07/31 03:01:08;;;;;;;21.30;17.50;;;15.00;99.90;;;;;;5059844;28;25055;-64
2021/07/31 03:03:35;;;;;;;32.28;17.25;;;15.00;99.90;;;;;;5072768;28;25139;-63
2021/07/31 03:06:01;;;;;;;23.60;16.75;;;15.00;99.90;;;;;;5064931;28;25073;-64
2021/07/31 03:08:27;;;;;;;22.55;16.80;;;15.00;99.90;;;;;;5058719;28;25063;-63
2021/07/31 03:11:00;;;;;;;35.92;17.23;;;15.00;99.90;;;;;;5064986;28;25074;-64
2021/07/31 03:13:26;;;;;;;25.13;16.75;;;15.00;99.90;;;;;;5076140;28;25073;-64
2021/07/31 03:15:53;;;;;;;34.40;16.88;;;15.00;99.90;;;;;;5067411;28;25052;-64
2021/07/31 03:18:19;;;;;;;28.08;17.80;;;15.10;99.90;;;;;;5067235;28;25110;-64
2021/07/31 03:20:49;;;;;;;32.97;17.70;;;15.10;99.90;;;;;;5058456;28;25146;-63
2021/07/31 03:23:16;;;;;;;38.13;17.92;;;15.10;99.90;;;;;;5062534;28;25109;-64
2021/07/31 03:25:42;;;;;;;24.67;17.38;;;15.20;99.90;;;;;;5063851;28;25166;-64
2021/07/31 03:28:09;;;;;;;32.78;17.17;;;15.20;99.90;;;;;;5064374;28;25069;-66
2021/07/31 03:30:39;;;;;;;30.63;16.88;;;15.20;99.90;;;;;;5071742;28;25065;-65
2021/07/31 03:33:04;;;;;;;28.55;17.35;;;15.20;99.90;;;;;;5050197;28;25105;-64
2021/07/31 03:35:30;;;;;;;27.13;16.10;;;15.20;99.90;;;;;;5068493;28;25068;-64
2021/07/31 03:37:55;;;;;;;28.13;18.75;;;15.20;99.90;;;;;;5060772;28;25074;-63
2021/07/31 03:40:21;;;;;;;22.95;17.95;;;15.30;99.90;;;;;;5061238;28;25072;-63
2021/07/31 03:42:47;;;;;;;28.55;16.63;;;15.20;99.90;;;;;;5070644;28;25089;-63
2021/07/31 03:45:12;;;;;;;26.83;19.02;;;15.20;99.90;;;;;;5072678;28;25077;-64
2021/07/31 03:47:38;;;;;;;22.67;17.75;;;15.20;99.90;;;;;;5064963;28;25164;-64
2021/07/31 03:50:04;;;;;;;24.55;19.00;;;15.20;99.90;;;;;;5068977;28;25147;-63
2021/07/31 03:52:29;;;;;;;32.97;19.02;;;15.20;99.90;;;;;;5068220;28;25130;-61
2021/07/31 03:54:55;;;;;;;26.33;19.05;;;15.20;99.90;;;;;;5049590;28;25195;-65
2021/07/31 03:57:20;;;;;;;27.05;19.20;;;15.20;99.90;;;;;;5068386;28;25080;-66
2021/07/31 03:59:46;;;;;;;24.83;19.55;;;15.30;99.90;;;;;;5068357;28;25132;-65
2021/07/31 04:02:11;;;;;;;31.85;19.35;;;15.30;99.90;;;;;;5065264;28;25150;-65
2021/07/31 04:04:37;;;;;;;27.77;20.00;;;15.30;99.90;;;;;;5061921;28;25047;-66
2021/07/31 04:07:03;;;;;;;31.23;20.20;;;15.30;99.90;;;;;;5063141;28;25137;-66
2021/07/31 04:09:28;;;;;;;30.13;20.90;;;15.30;99.90;;;;;;5061489;28;25132;-65
2021/07/31 04:11:54;;;;;;;23.20;19.75;;;15.40;99.90;;;;;;5064836;28;25090;-64
2021/07/31 04:14:19;;;;;;;22.52;20.08;;;15.30;99.90;;;;;;5066049;28;25087;-66
2021/07/31 04:16:45;;;;;;;30.00;19.20;;;15.30;99.90;;;;;;5068347;28;25212;-66
2021/07/31 04:19:11;;;;;;;29.38;21.85;;;15.30;99.90;;;;;;5064037;28;25057;-65
2021/07/31 04:21:37;;;;;;;31.17;20.35;;;15.30;99.90;;;;;;5068699;28;25107;-66
2021/07/31 04:24:03;;;;;;;26.80;20.88;;;15.30;99.90;;;;;;5057613;28;25116;-67
2021/07/31 04:26:29;;;;;;;29.10;20.77;;;15.30;99.90;;;;;;5058709;28;25075;-65
2021/07/31 04:28:54;;;;;;;22.30;19.35;;;15.20;99.90;;;;;;5047623;28;25049;-65
2021/07/31 04:31:20;;;;;;;25.00;21.67;;;15.30;99.90;;;;;;5064224;28;25074;-64
2021/07/31 04:33:45;;;;;;;24.73;22.10;;;15.30;99.90;;;;;;5061046;28;25076;-65
2021/07/31 04:36:12;;;;;;;23.80;21.23;;;15.30;99.90;;;;;;5060941;28;25096;-65
2021/07/31 04:38:37;;;;;;;22.27;19.98;;;15.30;99.90;;;;;;5059276;28;25058;-66
2021/07/31 04:41:04;;;;;;;22.10;19.83;;;15.30;99.90;;;;;;5065023;28;25063;-65
2021/07/31 04:43:31;;;;;;;23.35;20.50;;;15.20;99.90;;;;;;5055705;28;25080;-65
2021/07/31 04:45:57;;;;;;;22.02;20.02;;;15.20;99.90;;;;;;5063116;28;25069;-64
2021/07/31 04:48:23;;;;;;;21.85;19.73;;;15.20;99.90;;;;;;5058625;28;25151;-65
2021/07/31 04:51:03;;;;;;;20.98;19.27;;;15.30;99.90;;;;;;5060901;28;25091;-66
2021/07/31 04:53:30;;;;;;;20.98;19.05;;;15.30;99.90;;;;;;5059722;28;25071;-64
2021/07/31 04:55:56;;;;;;;26.00;20.13;;;15.30;99.90;;;;;;5058481;28;25074;-65
2021/07/31 04:58:23;;;;;;;22.50;19.85;;;15.30;99.90;;;;;;5061727;28;25154;-65
2021/07/31 05:00:49;;;;;;;26.00;19.60;;;15.30;99.90;;;;;;5059433;28;25065;-66
2021/07/31 05:03:15;;;;;;;20.20;18.42;;;15.40;99.90;;;;;;5057724;28;25069;-67
2021/07/31 05:05:42;;;;;;;22.58;19.17;;;15.30;99.90;;;;;;5056547;28;25057;-65
2021/07/31 05:08:08;;;;;;;20.42;18.33;;;15.40;99.90;;;;;;5055910;28;25123;-67
2021/07/31 05:10:41;;;;;;;20.48;18.33;;;15.40;99.90;;;;;;5055119;28;25148;-67
2021/07/31 05:13:07;;;;;;;24.35;18.75;;;15.40;99.90;;;;;;5066096;28;25068;-64
2021/07/31 05:15:34;;;;;;;25.23;19.45;;;15.40;99.90;;;;;;5066310;28;25120;-65
2021/07/31 05:17:59;;;;;;;21.58;19.00;;;15.50;99.90;;;;;;5067460;28;25166;-64
2021/07/31 05:20:25;;;;;;;20.10;17.70;;;15.50;99.90;;;;;;5058628;28;25075;-66
2021/07/31 05:22:50;;;;;;;21.42;19.52;;;15.50;99.90;;;;;;5066528;28;25112;-66
2021/07/31 05:25:16;;;;;;;20.98;18.40;;;15.50;99.90;;;;;;5061748;28;25074;-66
2021/07/31 05:27:42;;;;;;;24.80;19.45;;;15.50;99.90;;;;;;5061843;28;25072;-66
2021/07/31 05:30:08;;;;;;;20.48;18.55;;;15.60;99.90;;;;;;5067006;28;25118;-66
2021/07/31 05:32:35;;;;;;;19.50;17.85;;;15.60;99.90;;;;;;5066989;28;25084;-67
2021/07/31 05:35:01;;;;;;;21.90;19.02;;;15.60;99.90;;;;;;5066509;28;25054;-66
2021/07/31 05:37:26;;;;;;;25.70;19.05;;;15.70;99.90;;;;;;5066498;28;25066;-66
2021/07/31 05:39:52;;;;;;;20.17;18.25;;;15.80;99.90;;;;;;5068183;28;25070;-65
2021/07/31 05:42:17;;;;;;;23.35;19.50;;;15.90;99.90;;;;;;5067651;28;25060;-67
2021/07/31 05:44:43;;;;;;;21.58;17.33;;;15.90;99.90;;;;;;5069298;28;25144;-66
2021/07/31 05:47:09;;;;;;;19.10;17.05;;;15.90;99.90;;;;;;5076451;28;25061;-66
2021/07/31 05:49:34;;;;;;;18.83;15.55;;;15.90;99.90;;;;;;5071918;28;25075;-67
2021/07/31 05:52:00;;;;;;;16.67;14.23;;;15.90;99.90;;;;;;5071849;28;25075;-66
2021/07/31 05:54:25;;;;;;;20.75;15.15;;;15.90;99.90;;;;;;5066307;28;25088;-66
2021/07/31 05:56:51;;;;;;;18.02;13.93;;;15.90;99.90;;;;;;5056517;28;25065;-65
2021/07/31 05:59:17;;;;;;;12.10;11.10;;;15.80;99.90;;;;;;5056834;28;25066;-66
2021/07/31 06:01:42;;;;;;;15.13;11.07;;;15.90;99.90;;;;;;5056979;28;25068;-66
2021/07/31 06:04:08;;;;;;;14.02;10.65;;;15.90;99.90;;;;;;5054608;28;25148;-65
2021/07/31 06:06:33;;;;;;;11.32;10.27;;;16.00;99.90;;;;;;5058381;28;25067;-67
2021/07/31 06:08:59;;;;;;;12.48;9.02;;;16.10;99.90;;;;;;5051809;28;25142;-67
2021/07/31 06:11:25;;;;;;;12.93;7.35;;;16.10;99.90;;;;;;5060914;28;25138;-66
2021/07/31 06:13:51;;;;;;;11.38;6.82;;;16.20;99.90;;;;;;5055490;28;25057;-65
2021/07/31 06:16:16;;;;;;;7.57;5.20;;;16.40;99.90;;;;;;5060888;28;25087;-67
2021/07/31 06:18:42;;;;;;;14.73;5.15;;;16.50;99.90;;;;;;5060370;28;25079;-66
2021/07/31 06:21:18;;;;;;;5.85;3.58;;;16.70;99.90;;;;;;5058396;28;25111;-66
2021/07/31 06:23:44;;;;;;;7.13;2.95;;;16.60;99.90;;;;;;5056879;28;25084;-67
2021/07/31 06:26:10;;;;;;;8.23;3.17;;;16.50;99.90;;;;;;5060885;28;25150;-67
2021/07/31 06:28:35;;;;;;;5.05;2.80;;;16.30;99.90;;;;;;5068869;28;25070;-66
2021/07/31 06:31:02;;;;;;;6.97;2.63;;;16.30;99.90;;;;;;5062819;28;25067;-66
2021/07/31 06:33:27;;;;;;;5.20;2.42;;;16.40;99.90;;;;;;5065063;28;25074;-66
2021/07/31 06:35:53;;;;;;;6.70;2.80;;;16.50;99.90;;;;;;5063715;28;25133;-64
2021/07/31 06:38:18;;;;;;;8.02;2.95;;;16.50;99.90;;;;;;5067100;28;25167;-65
2021/07/31 06:40:44;;;;;;;10.40;3.13;;;16.60;99.90;;;;;;5067867;28;25060;-67
2021/07/31 06:43:09;;;;;;;8.93;3.20;;;16.60;99.90;;;;;;5062685;28;25063;-66
2021/07/31 06:45:36;;;;;;;7.25;3.35;;;16.60;99.90;;;;;;5066920;28;25059;-67
2021/07/31 06:48:02;;;;;;;10.55;2.92;;;16.50;99.90;;;;;;5075432;28;25120;-67
2021/07/31 06:50:27;;;;;;;7.43;2.97;;;16.50;99.90;;;;;;5068549;28;25067;-65
2021/07/31 06:52:53;;;;;;;9.30;3.50;;;16.50;99.90;;;;;;5071599;28;25161;-65
2021/07/31 06:55:18;;;;;;;10.35;3.22;;;16.40;99.90;;;;;;5069782;28;25155;-67
2021/07/31 06:57:44;;;;;;;9.07;3.40;;;16.30;99.90;;;;;;5051580;28;25061;-66
2021/07/31 07:00:10;;;;;;;10.60;4.07;;;16.40;99.90;;;;;;5068526;28;25119;-65
2021/07/31 07:02:35;;;;;;;8.77;3.53;;;16.40;99.90;;;;;;5084219;28;25051;-65
2021/07/31 07:05:02;;;;;;;6.30;3.47;;;16.40;99.90;;;;;;5072842;28;25064;-66
2021/07/31 07:07:27;;;;;;;8.40;3.47;;;16.40;99.90;;;;;;5073396;28;25148;-65
2021/07/31 07:09:53;;;;;;;8.13;3.42;;;16.50;99.90;;;;;;5070668;28;25063;-64
2021/07/31 07:12:19;;;;;;;7.93;3.65;;;16.50;99.90;;;;;;5063188;28;25070;-64
2021/07/31 07:14:44;;;;;;;11.02;3.70;;;16.50;99.90;;;;;;5068348;28;25077;-66
2021/07/31 07:17:10;;;;;;;6.05;3.15;;;16.40;99.90;;;;;;5068074;28;25070;-65
2021/07/31 07:19:36;;;;;;;7.72;3.65;;;16.40;99.90;;;;;;5062390;28;25125;-66
2021/07/31 07:22:01;;;;;;;11.75;3.92;;;16.40;99.90;;;;;;5063495;28;25085;-65
2021/07/31 07:24:27;;;;;;;6.70;3.55;;;16.50;99.90;;;;;;5062959;28;25083;-63
2021/07/31 07:26:52;;;;;;;5.25;3.55;;;16.80;99.90;;;;;;5068298;28;25106;-64
2021/07/31 07:29:18;;;;;;;12.32;4.68;;;16.90;99.90;;;;;;5066093;28;25076;-65
2021/07/31 07:31:43;;;;;;;9.25;3.83;;;16.80;99.90;;;;;;5072363;28;25165;-65
2021/07/31 07:34:09;;;;;;;9.38;3.58;;;16.80;99.90;;;;;;5051976;28;25136;-66
2021/07/31 07:36:35;;;;;;;7.07;3.90;;;16.70;99.90;;;;;;5050226;28;25055;-65
2021/07/31 07:39:00;;;;;;;8.15;4.25;;;16.70;99.90;;;;;;5063585;28;25092;-66
2021/07/31 07:41:26;;;;;;;7.30;2.97;;;16.80;99.90;;;;;;5068224;28;25085;-66
2021/07/31 07:43:51;;;;;;;4.68;2.47;;;16.80;99.90;;;;;;5061578;28;25116;-66
2021/07/31 07:46:17;;;;;;;5.45;2.67;;;17.20;99.90;;;;;;5055347;28;25070;-66
2021/07/31 07:48:44;;;;;;;6.50;2.55;;;17.50;99.90;;;;;;5057194;28;25166;-67
2021/07/31 07:51:10;;;;;;;7.22;2.30;;;17.80;99.90;;;;;;5064974;28;25071;-66
2021/07/31 07:53:36;;;;;;;6.70;2.28;;;17.90;99.90;;;;;;5065267;28;25092;-65
2021/07/31 07:56:02;;;;;;;4.95;1.83;;;18.00;99.90;;;;;;5061805;28;25068;-66
2021/07/31 07:58:28;;;;;;;4.30;2.33;;;17.90;99.90;;;;;;5063434;28;25061;-65
2021/07/31 08:00:54;;;;;;;7.53;2.67;;;17.80;99.90;;;;;;5062402;28;25061;-67
2021/07/31 08:03:19;;;;;;;9.43;2.58;;;17.60;99.90;;;;;;5063482;28;25064;-66
2021/07/31 08:05:45;;;;;;;4.10;2.10;;;17.50;99.90;;;;;;5060761;28;25056;-65
2021/07/31 08:08:11;;;;;;;4.68;2.15;;;17.40;99.90;;;;;;5061646;28;25052;-65
2021/07/31 08:10:37;;;;;;;7.57;2.30;;;17.30;99.90;;;;;;5057416;28;25126;-64
2021/07/31 08:13:03;;;;;;;5.72;2.10;;;17.20;99.90;;;;;;5064229;28;25093;-66
2021/07/31 08:15:29;;;;;;;3.88;2.42;;;17.20;99.90;;;;;;5061256;28;25141;-67
2021/07/31 08:17:54;;;;;;;7.88;2.90;;;17.20;99.90;;;;;;5056692;28;25065;-66
2021/07/31 08:20:21;;;;;;;5.18;2.40;;;17.20;99.90;;;;;;5064143;28;25070;-65
2021/07/31 08:22:47;;;;;;;6.97;2.88;;;17.20;99.90;;;;;;5062695;28;25074;-64
2021/07/31 08:25:12;;;;;;;8.32;3.90;;;16.80;99.90;;;;;;5055732;28;25060;-65
2021/07/31 08:27:38;;;;;;;8.60;3.75;;;16.50;99.90;;;;;;5054166;28;25052;-67
2021/07/31 08:30:05;;;;;;;8.02;4.88;;;16.30;99.90;;;;;;5057256;28;25059;-66
2021/07/31 08:32:30;;;;;;;8.77;7.93;;;16.20;99.90;;;;;;5064853;28;25079;-66
2021/07/31 08:34:56;;;;;;;9.18;8.32;;;16.30;99.90;;;;;;5062707;28;25066;-66
2021/07/31 08:37:22;;;;;;;8.90;7.90;;;16.40;99.90;;;;;;5073457;28;25156;-65
2021/07/31 08:39:48;;;;;;;9.40;7.90;;;16.40;99.90;;;;;;5065786;28;25061;-67
2021/07/31 08:42:14;;;;;;;8.25;7.55;;;16.40;99.90;;;;;;5067604;28;25062;-66
2021/07/31 08:44:40;;;;;;;8.43;7.70;;;16.50;99.90;;;;;;5067809;28;25066;-65
2021/07/31 08:47:09;;;;;;;9.55;7.57;;;16.40;99.90;;;;;;5066850;28;25048;-67
2021/07/31 08:49:37;;;;;;;9.63;8.60;;;16.50;99.90;;;;;;5067865;28;25066;-66
2021/07/31 08:52:04;;;;;;;12.07;8.60;;;16.60;99.90;;;;;;5067916;28;25121;-66
2021/07/31 08:54:30;;;;;;;8.18;7.38;;;16.80;99.90;;;;;;5068175;28;25069;-66
2021/07/31 08:56:56;;;;;;;9.35;6.90;;;16.80;99.90;;;;;;5063541;28;25145;-66
2021/07/31 08:59:26;;;;;;;10.27;7.90;;;16.70;99.90;;;;;;5058541;28;25058;-66
2021/07/31 09:01:51;;;;;;;10.20;7.07;;;16.70;99.90;;;;;;5061775;28;25054;-67
2021/07/31 09:04:17;;;;;;;8.45;7.65;;;16.80;99.90;;;;;;5066412;28;25067;-64
2021/07/31 09:06:45;;;;;;;11.88;6.57;;;16.90;99.90;;;;;;5056851;28;25047;-66
2021/07/31 09:09:11;;;;;;;8.82;6.78;;;16.90;99.90;;;;;;5042437;28;25153;-67
2021/07/31 09:11:57;;;;;;;16.15;6.90;;;16.90;99.90;;;;;;5061920;28;25077;-66
2021/07/31 09:14:23;;;;;;;9.60;6.80;;;17.10;99.90;;;;;;5062362;28;25103;-65
2021/07/31 09:16:48;;;;;;;8.27;6.93;;;17.10;99.90;;;;;;5053574;28;25060;-67
2021/07/31 09:19:15;;;;;;;17.95;6.93;;;17.20;99.90;;;;;;5060616;28;25096;-66
2021/07/31 09:21:42;;;;;;;9.10;6.53;;;17.10;99.90;;;;;;5060931;28;25067;-65
2021/07/31 09:24:17;;;;;;;10.93;6.47;;;17.20;99.90;;;;;;5057183;28;25064;-65
2021/07/31 09:26:49;;;;;;;12.73;6.82;;;17.20;99.90;;;;;;5056037;28;25122;-67
2021/07/31 09:29:18;;;;;;;10.98;6.40;;;17.40;99.90;;;;;;5060006;28;25077;-66
2021/07/31 09:31:49;;;;;;;7.63;5.88;;;17.50;99.90;;;;;;5055763;28;25104;-66
2021/07/31 09:34:27;;;;;;;7.78;4.15;;;17.70;99.90;;;;;;5054711;28;25123;-66
2021/07/31 09:37:23;;;;;;;11.35;4.65;;;17.60;99.90;;;;;;5055317;28;25101;-66
2021/07/31 09:40:03;;;;;;;9.43;3.65;;;17.70;99.90;;;;;;5067034;28;25094;-66
2021/07/31 09:42:39;;;;;;;5.35;4.22;;;17.90;99.90;;;;;;5063775;28;25077;-65
2021/07/31 09:45:09;;;;;;;5.60;3.83;;;18.10;99.90;;;;;;5059237;28;25054;-65
2021/07/31 09:47:36;;;;;;;5.15;4.63;;;18.00;99.90;;;;;;5059299;28;25073;-65
2021/07/31 09:50:03;;;;;;;4.50;3.70;;;17.80;99.90;;;;;;5062352;28;25072;-65
2021/07/31 09:52:29;;;;;;;10.57;4.60;;;17.60;99.90;;;;;;5064040;28;25062;-66
2021/07/31 09:54:57;;;;;;;7.15;4.35;;;17.50;99.90;;;;;;5071528;28;25065;-67
2021/07/31 09:57:30;;;;;;;5.97;4.38;;;17.40;99.90;;;;;;5074278;28;25065;-66
2021/07/31 10:00:02;;;;;;;8.68;4.50;;;17.50;99.90;;;;;;5047270;28;25044;-67
2021/07/31 10:02:29;;;;;;;14.05;4.97;;;17.70;99.90;;;;;;5070586;28;25075;-65
2021/07/31 10:04:55;;;;;;;13.57;5.15;;;17.90;99.90;;;;;;5066714;28;25132;-68
2021/07/31 10:07:20;;;;;;;7.55;4.47;;;18.20;99.90;;;;;;5068597;28;25142;-66
2021/07/31 10:09:52;;;;;;;8.65;4.10;;;18.60;99.90;;;;;;5056924;28;25145;-67
2021/07/31 10:12:26;;;;;;;7.63;4.38;;;19.00;99.90;;;;;;5057783;28;25074;-64
2021/07/31 10:14:53;;;;;;;7.95;3.63;;;18.80;99.90;;;;;;5068461;28;25126;-65
2021/07/31 10:17:30;;;;;;;9.82;3.95;;;18.70;99.90;;;;;;5055058;28;25054;-67
2021/07/31 10:19:56;;;;;;;6.82;3.85;;;18.70;99.90;;;;;;5067598;28;25069;-65
2021/07/31 10:22:41;;;;;;;5.47;3.28;;;18.50;99.90;;;;;;5059213;28;25084;-66
2021/07/31 10:25:08;;;;;;;4.57;3.00;;;18.60;99.90;;;;;;5063677;28;25080;-66
2021/07/31 10:27:35;;;;;;;5.68;3.17;;;18.80;99.90;;;;;;5043410;28;25053;-67
2021/07/31 10:30:04;;;;;;;8.43;3.50;;;18.90;99.90;;;;;;5073212;28;25047;-66
2021/07/31 10:32:35;;;;;;;4.28;2.70;;;18.90;99.90;;;;;;5067073;28;25063;-66
2021/07/31 10:35:04;;;;;;;6.60;3.15;;;18.90;99.90;;;;;;5069767;28;25084;-67
2021/07/31 10:37:29;;;;;;;5.15;3.05;;;18.90;99.90;;;;;;5060851;28;25078;-66
2021/07/31 10:40:06;;;;;;;3.75;2.60;;;18.70;99.90;;;;;;5061008;28;25052;-67
2021/07/31 10:42:57;;;;;;;6.00;2.85;;;18.90;99.90;;;;;;5069112;28;25148;-67
2021/07/31 10:45:25;;;;;;;9.55;3.22;;;19.10;99.90;;;;;;5075147;28;25134;-66
2021/07/31 10:47:54;;;;;;;5.05;3.17;;;19.20;99.90;;;;;;5075573;28;25073;-66
2021/07/31 10:50:40;;;;;;;7.68;2.80;;;19.20;99.90;;;;;;5068763;28;25095;-67
2021/07/31 10:53:11;;;;;;;9.10;2.90;;;19.20;99.90;;;;;;5071110;28;25072;-65
2021/07/31 10:55:36;;;;;;;7.65;3.53;;;19.20;99.90;;;;;;5069427;28;25114;-65
2021/07/31 10:58:06;;;;;;;5.32;3.47;;;19.50;99.90;;;;;;5070256;28;25153;-64
2021/07/31 11:00:40;;;;;;;5.60;3.22;;;19.50;99.90;;;;;;5060211;28;25068;-66
2021/07/31 11:03:13;;;;;;;5.93;3.28;;;19.50;99.90;;;;;;5056166;28;25061;-65
2021/07/31 11:05:48;;;;;;;11.98;4.05;;;19.50;99.90;;;;;;5061092;28;25055;-66
2021/07/31 11:08:15;;;;;;;6.03;3.80;;;19.20;99.90;;;;;;5056488;28;25056;-66
2021/07/31 11:10:44;;;;;;;4.90;3.97;;;19.10;99.90;;;;;;5054878;28;25070;-67
2021/07/31 11:13:35;;;;;;;9.05;3.35;;;19.10;99.90;;;;;;5062568;28;25076;-65
2021/07/31 11:16:07;;;;;;;7.50;3.08;;;19.30;99.90;;;;;;5068477;28;25069;-65
2021/07/31 11:18:35;;;;;;;7.05;2.92;;;19.40;99.90;;;;;;5070784;28;25105;-66
2021/07/31 11:21:11;;;;;;;6.57;2.85;;;19.30;99.90;;;;;;5072048;28;25076;-67
2021/07/31 11:23:48;;;;;;;5.88;2.35;;;19.40;99.90;;;;;;5051790;28;25072;-67
2021/07/31 11:26:45;;;;;;;10.00;2.58;;;19.60;99.90;;;;;;5068485;28;25068;-66
2021/07/31 11:29:24;;;;;;;5.05;2.30;;;19.90;99.90;;;;;;5071676;28;25075;-66
2021/07/31 11:32:03;;;;;;;4.72;2.65;;;19.90;99.90;;;;;;5066787;28;25070;-69
2021/07/31 11:34:40;;;;;;;5.90;2.38;;;19.90;99.90;;;;;;5068425;28;25086;-67
2021/07/31 11:37:07;;;;;;;4.68;2.35;;;19.80;99.90;;;;;;5062800;28;25072;-67
2021/07/31 11:39:33;;;;;;;7.07;2.80;;;19.80;99.90;;;;;;5068306;28;25068;-67
2021/07/31 11:41:59;;;;;;;4.03;2.35;;;19.90;99.90;;;;;;5063060;28;25051;-67
2021/07/31 11:44:27;;;;;;;4.00;2.47;;;20.00;99.90;;;;;;5062941;28;25099;-68
2021/07/31 11:46:53;;;;;;;6.35;2.63;;;20.10;99.90;;;;;;5068211;28;25122;-68
2021/07/31 11:49:31;;;;;;;5.93;2.35;;;20.00;99.90;;;;;;5064537;28;25073;-67
2021/07/31 11:51:58;;;;;;;5.80;2.75;;;19.90;99.90;;;;;;5072002;28;25065;-67
2021/07/31 11:54:25;;;;;;;9.30;3.47;;;19.70;99.90;;;;;;5061594;28;25080;-67
2021/07/31 11:56:51;;;;;;;7.35;2.92;;;19.30;99.90;;;;;;5065769;28;25143;-69
2021/07/31 11:59:31;;;;;;;8.25;2.80;;;19.20;99.90;;;;;;5079608;28;25092;-70
2021/07/31 12:01:57;;;;;;;3.50;2.03;;;19.50;99.90;;;;;;5050902;28;25128;-67
2021/07/31 12:04:42;;;;;;;3.40;2.30;;;19.80;99.90;;;;;;5081090;28;25075;-67
2021/07/31 12:07:19;;;;;;;4.35;2.35;;;19.90;99.90;;;;;;5056187;28;25093;-68
2021/07/31 12:10:13;;;;;;;5.28;2.28;;;19.80;99.90;;;;;;5072167;28;25071;-66
2021/07/31 12:12:41;;;;;;;6.85;2.40;;;19.60;99.90;;;;;;5068820;28;25111;-68
2021/07/31 12:15:24;;;;;;;5.35;2.20;;;19.80;99.90;;;;;;5043689;28;25071;-67
2021/07/31 12:17:59;;;;;;;5.60;2.72;;;20.20;99.90;;;;;;5058628;28;25147;-66
2021/07/31 12:20:29;;;;;;;4.78;2.78;;;20.20;99.90;;;;;;5067469;28;25060;-66
2021/07/31 12:22:55;;;;;;;5.00;2.75;;;19.90;99.90;;;;;;5067644;28;25142;-67
2021/07/31 12:25:21;;;;;;;5.03;2.70;;;19.70;99.90;;;;;;5061853;28;25101;-67
2021/07/31 12:27:56;;;;;;;5.30;2.85;;;19.60;99.90;;;;;;5067851;28;25130;-68
2021/07/31 12:30:30;;;;;;;6.35;3.35;;;19.20;99.90;;;;;;5063521;28;25152;-67
2021/07/31 12:32:58;;;;;;;7.43;3.58;;;19.00;99.90;;;;;;5067143;28;25110;-67
2021/07/31 12:35:46;;;;;;;3.08;2.78;;;19.00;99.90;;;;;;5067822;28;25071;-67
2021/07/31 12:38:23;;;;;;;7.45;3.50;;;19.00;99.90;;;;;;5067877;28;25085;-68